Archival Weather

Chicago O'Hare International

Chicago, Illinois (KORD)

Report from: Saturday, December 31, 2022 9:51 PM CST
Current time: Monday, March 4, 2024 6:35 PM CST

Current weather – Weather history – Daily summaries
Weather forecast

Temperature2.8°C (37.0°F)
Wind chill1.4°C (34.5°F)
Dew point-0.6°C (30.9°F)
Winds 3 kts (1.5 m/s, 3.5 mph) East (80°)
Visibility8 mi. (12.9 km)
Clouds Ceiling: Broken clouds 7,000 ft. (2,134 m)
Overcast 10,000 ft. (3,048 m)
Altimeter29.87 in.Hg (1012 mB)
Relative humidity78 %
Density altitude-1,360 ft. (-415 m)
Sea-level pressure101.2 kPa (1012 mB, 29.89 in.Hg)
Remarks Automated weather observing station with precipitation discriminator
Flight conditions Visual Meteorological Conditions
Raw dataKORD 010351Z 08003KT 8SM BKN070 OVC100 03/M01 A2987 RMK AO2 SLP123 T00281006
An error has occurred. This application may no longer respond until reloaded. Reload 🗙